createdAt,value
2023-01-17T00:02:18.475Z,97772.13
2023-01-17T00:07:30.853Z,97825.38
2023-01-17T00:12:29.221Z,97662.16
2023-01-17T00:17:22.695Z,97805.50
2023-01-17T00:22:42.170Z,97767.63
2023-01-17T00:27:33.693Z,97729.34
2023-01-17T00:32:25.266Z,97790.50
2023-01-17T00:37:16.731Z,97765.25
2023-01-17T00:42:08.245Z,97814.22
2023-01-17T00:47:18.736Z,97812.56
2023-01-17T00:52:29.109Z,97800.31
2023-01-17T00:57:39.307Z,97807.94
2023-01-17T01:02:49.915Z,97812.34
2023-01-17T01:08:00.107Z,97908.41
2023-01-17T01:13:10.521Z,97866.63
2023-01-17T01:18:30.046Z,97931.06
2023-01-17T01:23:40.269Z,97856.25
2023-01-17T01:28:50.431Z,97904.53
2023-01-17T01:33:42.029Z,97947.66
2023-01-17T01:38:33.581Z,97897.84
2023-01-17T01:43:49.510Z,97937.84
2023-01-17T01:48:44.094Z,97938.94
2023-01-17T01:53:38.651Z,97938.41
2023-01-17T01:58:34.058Z,97820.78
2023-01-17T02:03:31.882Z,97983.81
2023-01-17T02:08:24.185Z,98028.34
2023-01-17T02:13:19.537Z,97968.22
2023-01-17T02:18:16.211Z,98041.03
2023-01-17T02:23:54.384Z,97974.31
2023-01-17T02:28:58.139Z,97965.19
2023-01-17T02:33:59.043Z,97960.69
2023-01-17T02:39:04.265Z,97999.63
2023-01-17T02:43:55.901Z,97914.13
2023-01-17T02:48:48.118Z,98009.69
2023-01-17T02:53:51.774Z,98092.16
2023-01-17T02:58:58.464Z,98088.22
2023-01-17T03:04:02.826Z,98093.16
2023-01-17T03:08:55.565Z,97968.63
2023-01-17T03:13:47.115Z,98097.00
2023-01-17T03:18:38.733Z,98012.22
2023-01-17T03:23:30.295Z,98096.13
2023-01-17T03:28:21.890Z,98034.50
2023-01-17T03:33:13.560Z,98037.56
2023-01-17T03:38:05.572Z,97871.28
2023-01-17T03:42:57.096Z,98112.69
2023-01-17T03:47:48.671Z,98098.94
2023-01-17T03:52:40.272Z,98075.06
2023-01-17T03:57:31.873Z,98127.03
2023-01-17T04:02:24.793Z,98023.94
2023-01-17T04:07:16.434Z,98024.81
2023-01-17T04:12:09.526Z,98088.34
2023-01-17T04:17:01.477Z,97980.53
2023-01-17T04:21:53.087Z,98093.41
2023-01-17T04:26:44.746Z,98149.88
2023-01-17T04:31:36.771Z,98082.03
2023-01-17T04:36:28.423Z,98058.81
2023-01-17T04:41:20.239Z,98153.81
2023-01-17T04:46:12.468Z,98057.16
2023-01-17T04:51:05.535Z,98071.94
2023-01-17T04:55:57.469Z,98084.06
2023-01-17T05:00:50.992Z,98102.97
2023-01-17T05:05:43.797Z,98150.66
2023-01-17T05:10:35.440Z,98016.31
2023-01-17T05:15:27.800Z,98155.28
2023-01-17T05:20:20.681Z,98160.94
2023-01-17T05:25:12.266Z,98098.78
2023-01-17T05:30:04.648Z,98082.78
2023-01-17T05:34:56.441Z,98171.63
2023-01-17T05:39:48.005Z,98180.63
2023-01-17T05:44:39.633Z,98099.78
2023-01-17T05:49:31.271Z,98131.97
2023-01-17T05:54:22.825Z,98134.66
2023-01-17T05:59:14.533Z,98104.88
2023-01-17T06:04:06.381Z,98187.41
2023-01-17T06:08:58.061Z,98186.63
2023-01-17T06:13:49.690Z,98190.03
2023-01-17T06:18:41.275Z,98057.53
2023-01-17T06:23:32.981Z,98148.00
2023-01-17T06:28:24.606Z,98198.56
2023-01-17T06:33:16.340Z,98196.47
2023-01-17T06:38:09.920Z,98151.16
2023-01-17T06:43:02.959Z,98209.16
2023-01-17T06:47:54.501Z,98101.69
2023-01-17T06:53:01.255Z,98161.50
2023-01-17T06:57:54.546Z,98124.16
2023-01-17T07:02:49.372Z,98022.88
2023-01-17T07:07:40.872Z,98145.47
2023-01-17T07:12:32.457Z,98196.53
2023-01-17T07:17:24.023Z,98136.03
2023-01-17T07:22:15.555Z,98163.69
2023-01-17T07:27:07.579Z,98185.22
2023-01-17T07:31:59.090Z,98125.66
2023-01-17T07:36:50.693Z,98175.38
2023-01-17T07:41:42.905Z,98221.38
2023-01-17T07:46:35.623Z,98199.06
2023-01-17T07:51:27.236Z,98213.38
2023-01-17T07:56:18.855Z,98196.25
2023-01-17T08:01:13.879Z,98221.41
2023-01-17T08:06:07.714Z,98125.22
2023-01-17T08:10:59.346Z,98230.75
2023-01-17T08:15:51.884Z,98206.44
2023-01-17T08:20:44.551Z,98171.81
2023-01-17T08:25:36.500Z,98178.47
2023-01-17T08:30:28.291Z,98153.19
2023-01-17T08:35:20.690Z,98222.28
2023-01-17T08:40:17.163Z,98202.91
2023-01-17T08:45:09.908Z,98180.06
2023-01-17T08:50:01.592Z,98221.31
2023-01-17T08:54:56.320Z,98234.41
2023-01-17T08:59:48.231Z,98168.94
2023-01-17T09:04:39.911Z,98236.72
2023-01-17T09:09:31.784Z,98218.69
2023-01-17T09:14:23.358Z,98243.81
2023-01-17T09:19:15.001Z,98235.69
2023-01-17T09:24:06.728Z,98156.50
2023-01-17T09:28:58.698Z,98206.00
2023-01-17T09:33:52.022Z,98189.91
2023-01-17T09:38:43.830Z,98222.47
2023-01-17T09:43:49.468Z,98199.88
2023-01-17T09:48:43.766Z,98226.34
2023-01-17T09:53:39.035Z,98257.56
2023-01-17T09:58:59.614Z,98256.78
2023-01-17T10:03:57.292Z,98258.59
2023-01-17T10:08:57.880Z,98258.06
2023-01-17T10:14:05.751Z,98183.41
2023-01-17T10:18:57.307Z,98260.25
2023-01-17T10:24:26.472Z,98255.72
2023-01-17T10:29:21.076Z,98260.84
2023-01-17T10:34:23.207Z,98201.75
2023-01-17T10:39:21.738Z,98176.34
2023-01-17T10:44:32.156Z,98262.00
2023-01-17T10:49:26.210Z,98246.75
2023-01-17T10:55:04.048Z,98162.44
2023-01-17T11:00:01.181Z,98127.19
2023-01-17T11:04:55.615Z,98228.22
2023-01-17T11:09:53.302Z,98242.16
2023-01-17T11:15:06.509Z,98228.91
2023-01-17T11:20:08.651Z,98212.22
2023-01-17T11:25:01.251Z,98230.69
2023-01-17T11:30:16.397Z,98219.81
2023-01-17T11:35:27.971Z,98214.03
2023-01-17T11:40:25.462Z,98208.28
2023-01-17T11:45:33.681Z,98130.91
2023-01-17T11:50:26.543Z,98219.28
2023-01-17T11:55:18.269Z,98210.06
2023-01-17T12:00:24.000Z,98154.66
2023-01-17T12:05:42.826Z,98212.31
2023-01-17T12:11:02.424Z,98204.06
2023-01-17T12:16:28.513Z,98113.88
2023-01-17T12:21:36.663Z,98105.75
2023-01-17T12:26:42.351Z,98180.84
2023-01-17T12:31:49.664Z,98171.81
2023-01-17T12:36:49.374Z,98165.38
2023-01-17T12:41:47.065Z,98163.13
2023-01-17T12:46:49.452Z,98168.13
2023-01-17T12:51:44.315Z,98125.38
2023-01-17T12:56:43.604Z,98169.78
2023-01-17T13:01:43.275Z,98157.03
2023-01-17T13:06:54.843Z,98135.16
2023-01-17T13:11:51.996Z,98110.75
2023-01-17T13:16:57.964Z,98145.00
2023-01-17T13:21:50.501Z,98151.97
2023-01-17T13:27:06.876Z,98165.06
2023-01-17T13:32:36.399Z,98078.94
2023-01-17T13:37:37.362Z,98163.81
2023-01-17T13:42:53.151Z,98176.75
2023-01-17T13:47:44.727Z,98154.13
2023-01-17T13:52:37.011Z,98171.00
2023-01-17T13:57:48.941Z,98172.66
2023-01-17T14:02:42.168Z,98181.50
2023-01-17T14:07:37.968Z,98180.03
2023-01-17T14:12:33.123Z,98169.84
2023-01-17T14:17:34.950Z,98173.25
2023-01-17T14:22:35.359Z,98176.66
2023-01-17T14:27:30.405Z,98026.13
2023-01-17T14:32:27.055Z,98091.91
2023-01-17T14:37:27.243Z,98143.25
2023-01-17T14:42:22.923Z,98000.50
2023-01-17T14:47:16.034Z,98172.38
2023-01-17T14:52:15.662Z,98166.63
2023-01-17T14:57:28.831Z,98172.63
2023-01-17T15:02:20.594Z,97992.28
2023-01-17T15:07:17.017Z,98056.59
2023-01-17T15:12:11.285Z,98056.94
2023-01-17T15:17:29.648Z,98119.81
2023-01-17T15:22:22.045Z,97998.13
2023-01-17T15:27:15.173Z,98085.53
2023-01-17T15:32:08.038Z,98171.31
2023-01-17T15:37:05.599Z,98123.06
2023-01-17T15:42:03.418Z,98137.69
2023-01-17T15:46:55.260Z,97705.56
2023-01-17T15:51:54.838Z,98178.69
2023-01-17T15:56:46.403Z,98109.22
2023-01-17T16:01:38.159Z,98087.06
2023-01-17T16:06:45.329Z,98192.78
2023-01-17T16:11:37.034Z,98075.13
2023-01-17T16:16:28.680Z,98170.06
2023-01-17T16:21:26.217Z,98208.00
2023-01-17T16:26:18.540Z,98210.88
2023-01-17T16:31:10.454Z,98215.13
2023-01-17T16:36:02.254Z,98153.66
2023-01-17T16:40:54.415Z,98209.34
2023-01-17T16:45:53.159Z,98148.72
2023-01-17T16:50:52.264Z,98237.72
2023-01-17T16:55:44.560Z,98167.22
2023-01-17T17:00:36.226Z,98218.63
2023-01-17T17:05:27.968Z,98013.91
2023-01-17T17:10:21.902Z,98251.22
2023-01-17T17:15:14.254Z,98052.00
2023-01-17T17:20:07.304Z,98264.69
2023-01-17T17:24:59.079Z,98276.47
2023-01-17T17:29:50.690Z,98268.19
2023-01-17T17:34:42.246Z,98225.47
2023-01-17T17:39:33.798Z,98217.59
2023-01-17T17:44:25.726Z,98283.38
2023-01-17T17:49:17.343Z,98281.81
2023-01-17T17:54:11.843Z,98291.78
2023-01-17T17:59:05.614Z,98286.06
2023-01-17T18:04:00.768Z,98201.34
2023-01-17T18:08:52.860Z,98136.47
2023-01-17T18:13:47.800Z,98310.69
2023-01-17T18:18:41.954Z,98315.69
2023-01-17T18:23:40.903Z,98292.72
2023-01-17T18:28:32.688Z,98213.13
2023-01-17T18:33:24.428Z,98195.72
2023-01-17T18:38:15.959Z,98331.81
2023-01-17T18:43:07.533Z,98326.84
2023-01-17T18:47:59.895Z,98264.50
2023-01-17T18:52:53.153Z,98190.22
2023-01-17T18:57:44.981Z,98197.75
2023-01-17T19:02:36.578Z,98340.19
2023-01-17T19:07:29.644Z,98339.00
2023-01-17T19:12:21.247Z,98299.00
2023-01-17T19:17:12.904Z,98347.94
2023-01-17T19:22:04.555Z,98316.25
2023-01-17T19:26:56.424Z,98327.75
2023-01-17T19:31:48.279Z,98351.56
2023-01-17T19:36:39.988Z,98361.28
2023-01-17T19:41:33.123Z,98372.56
2023-01-17T19:46:27.295Z,98290.47
2023-01-17T19:51:19.298Z,98260.13
2023-01-17T19:56:17.370Z,98349.56
2023-01-17T20:01:10.366Z,98394.38
2023-01-17T20:06:01.986Z,98370.13
2023-01-17T20:10:53.618Z,98349.41
2023-01-17T20:15:45.177Z,98333.09
2023-01-17T20:20:41.365Z,98386.50
2023-01-17T20:25:37.628Z,98419.84
2023-01-17T20:30:31.789Z,98353.72
2023-01-17T20:35:23.373Z,98380.34
2023-01-17T20:40:14.964Z,98264.88
2023-01-17T20:45:07.477Z,98435.56
2023-01-17T20:49:59.072Z,98394.47
2023-01-17T20:54:51.742Z,98339.25
2023-01-17T20:59:45.616Z,98252.69
2023-01-17T21:04:37.364Z,98439.09
2023-01-17T21:09:28.921Z,98394.19
2023-01-17T21:14:21.749Z,98440.66
2023-01-17T21:19:14.912Z,98286.91
2023-01-17T21:24:06.738Z,98465.78
2023-01-17T21:29:00.344Z,98458.81
2023-01-17T21:33:55.136Z,98414.69
2023-01-17T21:38:52.157Z,98328.34
2023-01-17T21:43:43.922Z,98444.72
2023-01-17T21:48:35.434Z,98407.19
2023-01-17T21:53:27.672Z,98477.84
2023-01-17T21:58:38.132Z,98315.31
2023-01-17T22:03:29.705Z,98405.44
2023-01-17T22:08:21.623Z,98326.16
2023-01-17T22:13:17.753Z,98478.50
2023-01-17T22:18:09.824Z,98486.38
2023-01-17T22:23:01.384Z,98345.97
2023-01-17T22:27:53.004Z,98404.88
2023-01-17T22:32:44.593Z,98499.25
2023-01-17T22:37:36.183Z,98474.75
2023-01-17T22:42:27.761Z,98378.81
2023-01-17T22:47:19.311Z,98430.53
2023-01-17T22:52:10.801Z,98449.53
2023-01-17T22:57:02.377Z,98499.34
2023-01-17T23:01:53.998Z,98264.53
2023-01-17T23:06:45.678Z,98503.00
2023-01-17T23:11:43.903Z,98441.03
2023-01-17T23:16:55.789Z,98388.38
2023-01-17T23:22:05.979Z,98363.84
2023-01-17T23:27:16.621Z,98505.31
2023-01-17T23:32:08.197Z,98501.75
2023-01-17T23:36:59.732Z,98415.63
2023-01-17T23:42:09.943Z,98392.91
2023-01-17T23:47:01.571Z,98464.22
2023-01-17T23:51:53.249Z,98358.22
2023-01-17T23:56:44.899Z,98373.19
